createdAt,value
2018-05-12T00:01:56.119Z,93.90
2018-05-12T00:04:24.517Z,93.40
2018-05-12T00:06:53.693Z,93.30
2018-05-12T00:09:22.103Z,93.10
2018-05-12T00:11:49.776Z,97.50
2018-05-12T00:14:18.200Z,93.30
2018-05-12T00:16:46.232Z,93.50
2018-05-12T00:21:43.275Z,94.50
2018-05-12T00:24:12.098Z,93.60
2018-05-12T00:26:40.512Z,93.60
2018-05-12T00:29:08.536Z,94.00
2018-05-12T00:31:36.996Z,93.90
2018-05-12T00:34:05.113Z,94.00
2018-05-12T00:36:33.515Z,94.10
2018-05-12T00:39:01.160Z,98.40
2018-05-12T00:41:29.584Z,94.20
2018-05-12T00:43:57.211Z,98.20
2018-05-12T00:46:25.287Z,94.10
2018-05-12T00:48:54.070Z,94.00
2018-05-12T00:51:23.304Z,94.10
2018-05-12T00:53:51.703Z,93.80
2018-05-12T00:56:20.467Z,93.80
2018-05-12T00:58:49.940Z,94.10
2018-05-12T01:01:18.748Z,94.10
2018-05-12T01:03:47.175Z,94.00
2018-05-12T01:06:15.622Z,94.20
2018-05-12T01:08:43.418Z,98.60
2018-05-12T01:11:11.463Z,94.80
2018-05-12T01:16:08.145Z,98.80
2018-05-12T01:18:36.580Z,94.60
2018-05-12T01:21:04.609Z,94.70
2018-05-12T01:23:32.219Z,96.40
2018-05-12T01:26:00.708Z,94.50
2018-05-12T01:28:29.843Z,94.40
2018-05-12T01:30:58.239Z,94.30
2018-05-12T01:33:27.026Z,94.30
2018-05-12T01:38:24.853Z,94.40
2018-05-12T01:40:53.247Z,94.70
2018-05-12T01:43:22.020Z,95.10
2018-05-12T01:45:50.088Z,95.20
2018-05-12T01:48:17.884Z,98.80
2018-05-12T01:50:46.294Z,95.40
2018-05-12T01:53:13.920Z,99.70
2018-05-12T01:55:41.979Z,95.40
2018-05-12T01:58:10.389Z,95.30
2018-05-12T02:00:38.435Z,96.10
2018-05-12T02:03:07.704Z,95.70
2018-05-12T02:05:36.145Z,95.50
2018-05-12T02:08:03.786Z,98.80
2018-05-12T02:10:31.806Z,95.50
2018-05-12T02:15:29.196Z,95.80
2018-05-12T02:20:26.643Z,95.80
2018-05-12T02:22:54.302Z,99.90
2018-05-12T02:25:22.738Z,95.70
2018-05-12T02:27:51.182Z,95.90
2018-05-12T02:30:19.709Z,95.70
2018-05-12T02:32:48.839Z,95.60
2018-05-12T02:35:17.611Z,95.60
2018-05-12T02:37:45.730Z,95.60
2018-05-12T02:40:13.814Z,96.40
2018-05-12T02:42:41.497Z,99.90
2018-05-12T02:47:38.546Z,97.60
2018-05-12T02:52:36.068Z,96.00
2018-05-12T02:55:04.499Z,96.00
2018-05-12T02:57:32.523Z,96.10
2018-05-12T03:00:00.964Z,96.10
2018-05-12T03:04:58.019Z,96.20
2018-05-12T03:07:25.653Z,99.90
2018-05-12T03:09:53.661Z,96.30
2018-05-12T03:12:22.075Z,96.40
2018-05-12T03:14:49.725Z,99.90
2018-05-12T03:17:17.379Z,98.30
2018-05-12T03:19:45.801Z,96.50
2018-05-12T03:22:14.211Z,96.70
2018-05-12T03:24:42.976Z,96.60
2018-05-12T03:27:11.781Z,96.60
2018-05-12T03:29:40.568Z,96.60
2018-05-12T03:32:09.340Z,96.80
2018-05-12T03:34:36.996Z,99.90
2018-05-12T03:37:05.077Z,96.90
2018-05-12T03:39:32.698Z,99.90
2018-05-12T03:42:01.101Z,97.00
2018-05-12T03:44:28.765Z,99.50
2018-05-12T03:46:56.795Z,97.20
2018-05-12T03:49:24.852Z,97.20
2018-05-12T03:51:53.219Z,97.60
2018-05-12T03:54:21.761Z,97.20
2018-05-12T03:56:50.179Z,97.10
2018-05-12T03:59:17.812Z,99.90
2018-05-12T04:01:45.467Z,99.90
2018-05-12T04:04:24.891Z,99.90
2018-05-12T04:07:04.326Z,99.90
2018-05-12T04:12:47.485Z,97.40
2018-05-12T04:15:15.214Z,99.90
2018-05-12T04:17:53.551Z,99.90
2018-05-12T04:20:21.675Z,98.60
2018-05-12T04:22:50.151Z,97.20
2018-05-12T04:25:18.976Z,97.30
2018-05-12T04:27:47.136Z,97.90
2018-05-12T04:30:14.795Z,99.90
2018-05-12T04:32:43.643Z,99.40
2018-05-12T04:35:12.111Z,97.10
2018-05-12T04:37:45.727Z,97.00
2018-05-12T04:40:14.174Z,96.80
2018-05-12T04:42:44.639Z,96.60
2018-05-12T04:45:12.728Z,97.40
2018-05-12T04:47:41.411Z,99.90
2018-05-12T04:50:09.517Z,96.60
2018-05-12T04:52:38.147Z,99.80
2018-05-12T04:55:05.893Z,98.60
2018-05-12T04:57:33.978Z,96.50
2018-05-12T05:02:36.532Z,96.40
2018-05-12T05:05:06.855Z,96.50
2018-05-12T05:07:36.368Z,96.60
2018-05-12T05:10:04.112Z,99.50
2018-05-12T05:12:34.932Z,96.30
2018-05-12T05:15:03.037Z,96.40
2018-05-12T05:17:31.186Z,96.40
2018-05-12T05:19:58.833Z,98.60
2018-05-12T05:22:27.303Z,96.10
2018-05-12T05:24:54.970Z,99.90
2018-05-12T05:27:24.998Z,96.10
2018-05-12T05:29:54.186Z,95.90
2018-05-12T05:32:26.293Z,96.10
2018-05-12T05:34:54.768Z,96.10
2018-05-12T05:37:24.298Z,95.90
2018-05-12T05:39:52.744Z,95.60
2018-05-12T05:42:21.415Z,99.50
2018-05-12T05:44:49.517Z,95.30
2018-05-12T05:47:22.878Z,95.40
2018-05-12T05:49:51.457Z,95.30
2018-05-12T05:52:23.314Z,94.90
2018-05-12T05:54:50.992Z,99.10
2018-05-12T05:57:25.257Z,94.80
2018-05-12T05:59:53.358Z,94.50
2018-05-12T06:02:25.950Z,98.30
2018-05-12T06:04:54.526Z,94.30
2018-05-12T06:07:22.995Z,94.20
2018-05-12T06:09:52.158Z,94.20
2018-05-12T06:12:24.004Z,97.20
2018-05-12T06:14:53.155Z,94.10
2018-05-12T06:17:31.689Z,94.10
2018-05-12T06:19:59.746Z,93.70
2018-05-12T06:22:28.901Z,93.70
2018-05-12T06:24:56.601Z,95.90
2018-05-12T06:29:57.913Z,93.70
2018-05-12T06:32:26.334Z,93.70
2018-05-12T06:37:41.439Z,93.10
2018-05-12T06:40:09.552Z,92.80
2018-05-12T06:42:45.716Z,93.10
2018-05-12T06:45:13.408Z,95.20
2018-05-12T06:47:47.506Z,92.00
2018-05-12T06:50:15.657Z,91.50
2018-05-12T06:52:43.748Z,92.00
2018-05-12T06:55:11.457Z,93.60
2018-05-12T06:57:45.810Z,91.70
2018-05-12T07:00:14.257Z,91.00
2018-05-12T07:02:43.442Z,91.80
2018-05-12T07:05:11.897Z,91.00
2018-05-12T07:07:40.338Z,90.10
2018-05-12T07:10:08.470Z,90.00
2018-05-12T07:12:39.320Z,88.70
2018-05-12T07:15:07.019Z,92.90
2018-05-12T07:17:36.812Z,88.00
2018-05-12T07:20:06.013Z,88.60
2018-05-12T07:22:40.643Z,92.10
2018-05-12T07:25:09.401Z,85.80
2018-05-12T07:27:37.879Z,86.40
2018-05-12T07:30:05.977Z,86.70
2018-05-12T07:32:36.978Z,90.00
2018-05-12T07:35:04.657Z,91.70
2018-05-12T07:37:33.230Z,85.90
2018-05-12T07:40:01.712Z,85.50
2018-05-12T07:42:30.198Z,85.40
2018-05-12T07:44:58.292Z,87.50
2018-05-12T07:49:59.466Z,90.20
2018-05-12T07:52:27.904Z,90.10
2018-05-12T07:54:56.406Z,90.30
2018-05-12T07:57:25.920Z,90.20
2018-05-12T07:59:53.994Z,90.60
2018-05-12T08:02:30.609Z,91.20
2018-05-12T08:04:58.306Z,94.10
2018-05-12T08:07:31.012Z,93.50
2018-05-12T08:09:59.074Z,88.80
2018-05-12T08:12:42.189Z,89.20
2018-05-12T08:15:10.570Z,88.60
2018-05-12T08:17:45.676Z,89.40
2018-05-12T08:20:13.358Z,91.90
2018-05-12T08:22:46.070Z,90.70
2018-05-12T08:25:14.482Z,84.80
2018-05-12T08:27:50.147Z,90.60
2018-05-12T08:30:17.917Z,90.40
2018-05-12T08:32:45.981Z,83.40
2018-05-12T08:35:13.703Z,90.50
2018-05-12T08:37:41.768Z,82.60
2018-05-12T08:40:10.611Z,82.80
2018-05-12T08:42:42.983Z,84.10
2018-05-12T08:45:10.718Z,91.00
2018-05-12T08:47:39.767Z,84.60
2018-05-12T08:50:07.803Z,85.40
2018-05-12T08:52:42.631Z,83.40
2018-05-12T08:55:11.059Z,83.70
2018-05-12T08:57:41.198Z,83.20
2018-05-12T09:00:09.615Z,80.80
2018-05-12T09:02:43.740Z,78.30
2018-05-12T09:05:11.412Z,83.60
2018-05-12T09:07:40.537Z,77.90
2018-05-12T09:10:08.631Z,79.00
2018-05-12T09:12:40.590Z,80.00
2018-05-12T09:15:08.227Z,83.30
2018-05-12T09:20:29.536Z,75.60
2018-05-12T09:22:57.979Z,76.30
2018-05-12T09:25:28.922Z,76.00
2018-05-12T09:27:57.370Z,76.40
2018-05-12T09:30:45.033Z,80.30
2018-05-12T09:33:12.773Z,81.60
2018-05-12T09:35:42.079Z,74.70
2018-05-12T09:38:09.730Z,78.90
2018-05-12T09:40:49.724Z,73.20
2018-05-12T09:43:17.813Z,75.20
2018-05-12T09:45:50.425Z,70.00
2018-05-12T09:48:18.874Z,69.10
2018-05-12T09:53:49.374Z,68.80
2018-05-12T09:56:17.825Z,69.40
2018-05-12T09:58:45.559Z,74.70
2018-05-12T10:03:43.633Z,70.00
2018-05-12T10:06:11.662Z,71.10
2018-05-12T10:08:49.097Z,71.70
2018-05-12T10:11:17.945Z,68.00
2018-05-12T10:14:03.701Z,65.30
2018-05-12T10:16:32.183Z,64.70
2018-05-12T10:19:05.103Z,64.00
2018-05-12T10:21:33.522Z,66.00
2018-05-12T10:24:02.284Z,73.00
2018-05-12T10:26:31.096Z,68.70
2018-05-12T10:29:03.270Z,67.90
2018-05-12T10:31:31.702Z,69.60
2018-05-12T10:34:06.399Z,72.30
2018-05-12T10:36:34.966Z,67.40
2018-05-12T10:39:05.809Z,69.10
2018-05-12T10:41:34.606Z,62.70
2018-05-12T10:44:23.357Z,62.70
2018-05-12T10:46:52.156Z,65.20
2018-05-12T10:49:28.026Z,63.20
2018-05-12T10:51:55.696Z,69.60
2018-05-12T10:54:24.225Z,64.20
2018-05-12T10:56:52.326Z,65.00
2018-05-12T10:59:25.476Z,65.90
2018-05-12T11:01:54.706Z,63.70
2018-05-12T11:04:41.509Z,61.00
2018-05-12T11:07:10.672Z,60.50
2018-05-12T11:09:39.138Z,60.40
2018-05-12T11:12:06.770Z,65.30
2018-05-12T11:14:35.220Z,60.70
2018-05-12T11:17:04.038Z,59.60
2018-05-12T11:19:38.179Z,64.20
2018-05-12T11:22:06.673Z,61.50
2018-05-12T11:24:44.052Z,62.10
2018-05-12T11:27:11.728Z,66.60
2018-05-12T11:29:40.819Z,60.40
2018-05-12T11:32:08.470Z,63.80
2018-05-12T11:34:54.234Z,59.50
2018-05-12T11:37:21.895Z,64.90
2018-05-12T11:39:57.550Z,59.10
2018-05-12T11:42:25.611Z,61.60
2018-05-12T11:44:59.125Z,64.20
2018-05-12T11:47:27.204Z,58.10
2018-05-12T11:49:54.909Z,63.90
2018-05-12T11:52:23.465Z,57.50
2018-05-12T11:54:51.929Z,59.20
2018-05-12T11:57:19.566Z,63.90
2018-05-12T11:59:49.018Z,58.10
2018-05-12T12:02:16.824Z,60.60
2018-05-12T12:10:28.450Z,56.70
2018-05-12T12:12:56.874Z,56.10
2018-05-12T12:15:25.811Z,56.80
2018-05-12T12:17:53.933Z,58.80
2018-05-12T12:20:22.697Z,60.20
2018-05-12T12:22:50.387Z,59.80
2018-05-12T12:25:28.576Z,60.50
2018-05-12T12:27:57.740Z,55.60
2018-05-12T12:33:01.323Z,58.10
2018-05-12T12:35:29.522Z,56.50
2018-05-12T12:37:58.703Z,56.00
2018-05-12T12:40:28.579Z,54.20
2018-05-12T12:42:56.291Z,58.30
2018-05-12T12:45:28.845Z,59.20
2018-05-12T12:47:57.401Z,56.10
2018-05-12T12:50:30.953Z,57.10
2018-05-12T12:52:59.073Z,54.80
2018-05-12T12:55:33.014Z,55.90
2018-05-12T13:00:32.256Z,56.60
2018-05-12T13:03:00.342Z,55.50
2018-05-12T13:05:38.184Z,55.10
2018-05-12T13:10:40.013Z,55.60
2018-05-12T13:13:08.922Z,54.00
2018-05-12T13:15:41.022Z,56.80
2018-05-12T13:18:08.740Z,57.80
2018-05-12T13:20:36.452Z,58.00
2018-05-12T13:23:04.539Z,54.80
2018-05-12T13:25:48.631Z,55.40
2018-05-12T13:28:16.297Z,58.30
2018-05-12T13:31:01.650Z,55.90
2018-05-12T13:33:30.937Z,54.30
2018-05-12T13:36:05.742Z,57.80
2018-05-12T13:41:09.044Z,54.70
2018-05-12T13:43:36.733Z,57.30
2018-05-12T13:46:12.346Z,54.50
2018-05-12T13:48:40.032Z,57.40
2018-05-12T13:51:09.112Z,53.90
2018-05-12T13:53:37.588Z,53.90
2018-05-12T13:56:06.072Z,55.10
2018-05-12T13:58:34.500Z,54.50
2018-05-12T14:01:04.701Z,55.60
2018-05-12T14:03:32.363Z,58.60
2018-05-12T14:06:05.892Z,55.00
2018-05-12T14:08:33.564Z,58.20
2018-05-12T14:11:04.117Z,54.30
2018-05-12T14:13:32.528Z,54.90
2018-05-12T14:16:06.663Z,56.70
2018-05-12T14:21:04.443Z,56.10
2018-05-12T14:23:32.873Z,56.10
2018-05-12T14:26:09.820Z,58.80
2018-05-12T14:28:37.672Z,56.90
2018-05-12T14:31:13.893Z,57.10
2018-05-12T14:33:42.415Z,54.40
2018-05-12T14:36:31.218Z,53.80
2018-05-12T14:38:59.316Z,55.10
2018-05-12T14:41:27.049Z,56.50
2018-05-12T14:43:55.097Z,54.30
2018-05-12T14:49:17.329Z,54.70
2018-05-12T14:51:45.808Z,54.20
2018-05-12T14:54:14.293Z,55.30
2018-05-12T14:59:12.919Z,56.00
2018-05-12T15:01:41.056Z,52.50
2018-05-12T15:04:11.525Z,53.20
2018-05-12T15:06:39.191Z,52.70
2018-05-12T15:09:08.068Z,50.90
2018-05-12T15:11:36.287Z,50.90
2018-05-12T15:14:04.777Z,50.30
2018-05-12T15:16:32.413Z,52.10
2018-05-12T15:19:00.898Z,48.80
2018-05-12T15:21:29.815Z,49.80
2018-05-12T15:23:58.311Z,50.90
2018-05-12T15:26:26.762Z,50.50
2018-05-12T15:28:55.421Z,52.50
2018-05-12T15:31:23.886Z,52.00
2018-05-12T15:33:53.237Z,50.60
2018-05-12T15:36:21.042Z,53.40
2018-05-12T15:38:49.411Z,52.10
2018-05-12T15:41:20.219Z,53.20
2018-05-12T15:46:17.801Z,54.30
2018-05-12T15:48:47.407Z,55.90
2018-05-12T15:51:15.609Z,54.80
2018-05-12T15:53:44.042Z,53.00
2018-05-12T15:56:12.823Z,53.30
2018-05-12T15:58:42.027Z,54.10
2018-05-12T16:01:09.679Z,54.70
2018-05-12T16:03:37.735Z,54.10
2018-05-12T16:06:05.832Z,53.60
2018-05-12T16:08:36.605Z,54.20
2018-05-12T16:11:04.659Z,55.60
2018-05-12T16:13:32.718Z,54.60
2018-05-12T16:18:30.801Z,55.10
2018-05-12T16:28:28.273Z,55.10
2018-05-12T16:30:55.959Z,54.40
2018-05-12T16:33:27.534Z,53.80
2018-05-12T16:35:56.361Z,54.20
2018-05-12T16:38:25.109Z,56.00
2018-05-12T16:40:53.900Z,53.80
2018-05-12T16:43:26.362Z,54.80
2018-05-12T16:45:54.032Z,55.10
2018-05-12T16:48:32.904Z,55.30
2018-05-12T16:51:00.655Z,56.80
2018-05-12T16:55:57.695Z,55.20
2018-05-12T16:58:27.170Z,56.10
2018-05-12T17:00:55.593Z,56.80
2018-05-12T17:05:53.016Z,59.00
2018-05-12T17:08:22.735Z,61.20
2018-05-12T17:10:50.822Z,60.50
2018-05-12T17:13:19.356Z,59.70
2018-05-12T17:15:47.777Z,61.10
2018-05-12T17:23:18.368Z,66.40
2018-05-12T17:25:46.786Z,63.30
2018-05-12T17:28:24.575Z,69.30
2018-05-12T17:33:32.296Z,69.40
2018-05-12T17:36:00.827Z,69.10
2018-05-12T17:38:33.978Z,68.80
2018-05-12T17:41:02.105Z,69.50
2018-05-12T17:43:44.895Z,74.40
2018-05-12T17:46:12.976Z,71.40
2018-05-12T17:48:54.134Z,72.60
2018-05-12T17:51:22.275Z,78.40
2018-05-12T17:53:49.961Z,78.40
2018-05-12T17:56:19.129Z,76.00
2018-05-12T17:58:52.244Z,76.40
2018-05-12T18:01:19.901Z,83.10
2018-05-12T18:03:52.928Z,77.10
2018-05-12T18:06:21.366Z,77.80
2018-05-12T18:08:51.509Z,79.40
2018-05-12T18:11:20.310Z,79.70
2018-05-12T18:13:50.116Z,80.10
2018-05-12T18:16:18.609Z,80.80
2018-05-12T18:18:49.121Z,81.20
2018-05-12T18:21:17.611Z,81.70
2018-05-12T18:23:49.219Z,82.10
2018-05-12T18:26:18.060Z,82.40
2018-05-12T18:28:54.645Z,83.20
2018-05-12T18:31:22.727Z,84.00
2018-05-12T18:33:58.363Z,84.60
2018-05-12T18:36:27.109Z,84.40
2018-05-12T18:38:58.628Z,85.20
2018-05-12T18:46:27.909Z,86.10
2018-05-12T18:49:16.740Z,87.00
2018-05-12T18:51:44.423Z,91.60
2018-05-12T18:54:13.328Z,86.80
2018-05-12T18:56:41.850Z,87.00
2018-05-12T19:01:39.545Z,92.20
2018-05-12T19:04:10.407Z,90.70
2018-05-12T19:06:38.915Z,88.80
2018-05-12T19:09:10.988Z,91.20
2018-05-12T19:11:39.866Z,90.00
2018-05-12T19:14:31.742Z,90.10
2018-05-12T19:16:59.897Z,91.30
2018-05-12T19:19:29.369Z,90.40
2018-05-12T19:21:57.438Z,90.80
2018-05-12T19:24:26.937Z,90.50
2018-05-12T19:26:54.982Z,91.40
2018-05-12T19:29:25.199Z,93.70
2018-05-12T19:31:53.258Z,91.30
2018-05-12T19:34:21.463Z,91.00
2018-05-12T19:36:50.328Z,91.10
2018-05-12T19:39:19.037Z,93.00
2018-05-12T19:41:47.136Z,91.20
2018-05-12T19:44:18.303Z,91.50
2018-05-12T19:46:46.042Z,93.50
2018-05-12T19:49:16.487Z,91.60
2018-05-12T19:51:44.558Z,91.70
2018-05-12T19:54:12.237Z,95.10
2018-05-12T19:56:40.301Z,91.40
2018-05-12T19:59:16.635Z,91.80
2018-05-12T20:01:45.085Z,91.70
2018-05-12T20:04:16.443Z,91.80
2018-05-12T20:06:44.479Z,91.80
2018-05-12T20:09:17.057Z,91.80
2018-05-12T20:11:45.497Z,91.80
2018-05-12T20:14:23.207Z,94.80
2018-05-12T20:16:51.640Z,92.10
2018-05-12T20:19:29.698Z,95.90
2018-05-12T20:21:57.723Z,92.60
2018-05-12T20:24:26.823Z,92.50
2018-05-12T20:26:55.249Z,92.60
2018-05-12T20:29:26.227Z,93.00
2018-05-12T20:31:54.633Z,92.70
2018-05-12T20:34:38.185Z,92.80
2018-05-12T20:37:06.994Z,92.90
2018-05-12T20:39:42.817Z,95.40
2018-05-12T20:42:10.908Z,93.00
2018-05-12T20:44:40.331Z,93.20
2018-05-12T20:47:08.037Z,96.50
2018-05-12T20:49:36.119Z,93.20
2018-05-12T20:52:03.822Z,95.10
2018-05-12T20:54:43.820Z,93.20
2018-05-12T20:57:11.913Z,93.30
2018-05-12T21:02:09.937Z,93.50
2018-05-12T21:04:39.333Z,93.70
2018-05-12T21:07:07.016Z,97.20
2018-05-12T21:09:41.818Z,97.70
2018-05-12T21:12:09.528Z,95.90
2018-05-12T21:14:38.163Z,95.50
2018-05-12T21:17:06.984Z,93.90
2018-05-12T21:19:52.960Z,97.90
2018-05-12T21:24:49.748Z,98.10
2018-05-12T21:27:18.225Z,94.20
2018-05-12T21:29:57.514Z,94.20
2018-05-12T21:32:26.707Z,94.30
2018-05-12T21:40:21.152Z,94.60
2018-05-12T21:42:49.230Z,95.40
2018-05-12T21:45:20.934Z,94.60
2018-05-12T21:47:48.621Z,98.60
2018-05-12T21:50:16.873Z,94.50
2018-05-12T21:52:44.921Z,94.90
2018-05-12T21:55:18.905Z,94.70
2018-05-12T21:57:46.931Z,97.40
2018-05-12T22:00:19.946Z,94.80
2018-05-12T22:02:47.741Z,98.00
2018-05-12T22:05:16.940Z,95.20
2018-05-12T22:07:45.761Z,95.00
2018-05-12T22:10:29.083Z,95.00
2018-05-12T22:12:56.970Z,99.10
2018-05-12T22:15:25.440Z,95.00
2018-05-12T22:17:54.224Z,95.00
2018-05-12T22:20:21.968Z,98.10
2018-05-12T22:22:50.006Z,95.10
2018-05-12T22:27:51.068Z,95.20
2018-05-12T22:30:38.385Z,96.60
2018-05-12T22:33:06.859Z,95.20
2018-05-12T22:35:43.212Z,95.30
2018-05-12T22:38:10.933Z,98.10
2018-05-12T22:40:39.064Z,95.50
2018-05-12T22:43:07.153Z,96.20
2018-05-12T22:45:36.263Z,96.60
2018-05-12T22:48:04.693Z,95.70
2018-05-12T22:50:33.284Z,95.50
2018-05-12T22:53:01.328Z,95.50
2018-05-12T22:55:34.166Z,95.50
2018-05-12T23:00:31.706Z,95.50
2018-05-12T23:03:00.225Z,95.50
2018-05-12T23:10:35.483Z,95.80
2018-05-12T23:13:04.271Z,95.90
2018-05-12T23:15:39.060Z,95.90
2018-05-12T23:18:07.527Z,96.00
2018-05-12T23:20:35.963Z,96.00
2018-05-12T23:23:04.450Z,96.10
2018-05-12T23:25:46.387Z,96.20
2018-05-12T23:28:14.465Z,97.20
2018-05-12T23:30:46.913Z,96.30
2018-05-12T23:33:15.012Z,96.40
2018-05-12T23:35:46.620Z,98.00
2018-05-12T23:38:14.792Z,96.50
2018-05-12T23:40:45.205Z,96.50
2018-05-12T23:43:13.674Z,96.60
2018-05-12T23:45:59.582Z,96.70
2018-05-12T23:48:28.048Z,96.70
2018-05-12T23:51:03.150Z,96.70
2018-05-12T23:53:31.657Z,96.80
2018-05-12T23:56:02.081Z,96.90
2018-05-12T23:58:30.490Z,96.90
